createdAt,value
2018-06-17T00:00:27.324Z,15.59
2018-06-17T00:01:27.309Z,15.53
2018-06-17T00:02:27.299Z,15.57
2018-06-17T00:03:27.277Z,15.47
2018-06-17T00:04:27.272Z,15.53
2018-06-17T00:05:27.261Z,15.39
2018-06-17T00:06:27.289Z,15.44
2018-06-17T00:07:27.213Z,15.34
2018-06-17T00:08:27.196Z,15.32
2018-06-17T00:09:27.202Z,15.38
2018-06-17T00:10:27.214Z,15.34
2018-06-17T00:11:27.153Z,15.35
2018-06-17T00:12:27.133Z,15.41
2018-06-17T00:13:27.116Z,15.36
2018-06-17T00:14:27.112Z,15.36
2018-06-17T00:15:27.095Z,15.34
2018-06-17T00:16:27.068Z,15.38
2018-06-17T00:17:27.053Z,15.35
2018-06-17T00:18:27.037Z,15.35
2018-06-17T00:19:27.019Z,15.36
2018-06-17T00:20:27.021Z,15.43
2018-06-17T00:21:26.993Z,15.38
2018-06-17T00:22:26.973Z,15.31
2018-06-17T00:23:26.979Z,15.38
2018-06-17T00:24:26.949Z,15.29
2018-06-17T00:25:26.927Z,15.23
2018-06-17T00:26:26.904Z,15.23
2018-06-17T00:27:26.930Z,15.23
2018-06-17T00:28:26.874Z,15.20
2018-06-17T00:29:26.859Z,15.21
2018-06-17T00:30:26.859Z,15.23
2018-06-17T00:31:26.832Z,15.14
2018-06-17T00:32:26.812Z,15.13
2018-06-17T00:33:26.799Z,15.10
2018-06-17T00:34:26.776Z,15.13
2018-06-17T00:35:26.763Z,15.20
2018-06-17T00:36:26.755Z,15.06
2018-06-17T00:37:26.733Z,15.07
2018-06-17T00:38:26.722Z,14.98
2018-06-17T00:39:26.699Z,14.99
2018-06-17T00:40:26.683Z,14.94
2018-06-17T00:41:26.677Z,14.98
2018-06-17T00:42:26.648Z,15.07
2018-06-17T00:43:26.635Z,15.06
2018-06-17T00:44:26.621Z,15.03
2018-06-17T00:45:26.598Z,14.98
2018-06-17T00:46:26.600Z,15.02
2018-06-17T00:47:26.570Z,15.06
2018-06-17T00:48:26.561Z,15.07
2018-06-17T00:49:26.533Z,15.06
2018-06-17T00:50:26.520Z,15.13
2018-06-17T00:51:26.505Z,15.09
2018-06-17T00:52:26.491Z,15.06
2018-06-17T00:53:26.474Z,15.10
2018-06-17T00:54:26.452Z,14.99
2018-06-17T00:55:26.435Z,15.03
2018-06-17T00:56:26.439Z,15.02
2018-06-17T00:57:26.408Z,15.02
2018-06-17T00:58:26.387Z,14.98
2018-06-17T00:59:26.371Z,14.94
2018-06-17T01:00:26.365Z,14.84
2018-06-17T01:01:26.342Z,14.91
2018-06-17T01:02:26.333Z,14.89
2018-06-17T01:03:26.307Z,14.86
2018-06-17T01:04:26.289Z,14.94
2018-06-17T01:05:26.274Z,14.88
2018-06-17T01:06:26.259Z,14.91
2018-06-17T01:07:26.252Z,14.95
2018-06-17T01:08:26.226Z,14.91
2018-06-17T01:09:26.204Z,15.01
2018-06-17T01:10:26.193Z,14.98
2018-06-17T01:11:26.173Z,14.99
2018-06-17T01:12:26.167Z,14.95
2018-06-17T01:13:26.142Z,14.91
2018-06-17T01:14:26.135Z,14.95
2018-06-17T01:15:26.104Z,14.92
2018-06-17T01:16:26.100Z,14.88
2018-06-17T01:17:26.092Z,14.86
2018-06-17T01:18:26.058Z,14.96
2018-06-17T01:19:26.043Z,14.83
2018-06-17T01:20:26.031Z,14.84
2018-06-17T01:21:26.010Z,14.91
2018-06-17T01:22:25.994Z,14.98
2018-06-17T01:23:25.990Z,15.02
2018-06-17T01:24:25.962Z,15.02
2018-06-17T01:25:25.945Z,15.01
2018-06-17T01:26:25.929Z,15.07
2018-06-17T01:27:25.920Z,15.03
2018-06-17T01:28:25.914Z,15.03
2018-06-17T01:29:25.889Z,15.07
2018-06-17T01:30:25.864Z,15.06
2018-06-17T01:31:25.845Z,14.95
2018-06-17T01:32:25.830Z,14.99
2018-06-17T01:33:25.838Z,14.99
2018-06-17T01:34:25.800Z,14.95
2018-06-17T01:35:25.779Z,14.99
2018-06-17T01:36:25.772Z,14.89
2018-06-17T01:37:25.749Z,14.95
2018-06-17T01:38:25.732Z,14.95
2018-06-17T01:39:25.724Z,14.89
2018-06-17T01:40:25.699Z,14.86
2018-06-17T01:41:25.683Z,14.86
2018-06-17T01:42:25.666Z,14.89
2018-06-17T01:43:25.653Z,14.91
2018-06-17T01:44:25.643Z,14.75
2018-06-17T01:45:25.616Z,14.75
2018-06-17T01:46:25.601Z,14.80
2018-06-17T01:47:25.584Z,14.73
2018-06-17T01:48:25.569Z,14.77
2018-06-17T01:49:25.569Z,14.78
2018-06-17T01:50:25.537Z,14.77
2018-06-17T01:51:25.518Z,14.73
2018-06-17T01:52:25.500Z,14.73
2018-06-17T01:53:25.487Z,14.69
2018-06-17T01:54:25.480Z,14.77
2018-06-17T01:55:25.452Z,14.73
2018-06-17T01:56:25.436Z,14.84
2018-06-17T01:57:25.424Z,14.75
2018-06-17T01:58:25.406Z,14.77
2018-06-17T01:59:25.417Z,14.77
2018-06-17T02:00:25.372Z,14.70
2018-06-17T02:01:25.355Z,14.77
2018-06-17T02:02:25.338Z,14.69
2018-06-17T02:03:25.324Z,14.62
2018-06-17T02:04:25.300Z,14.54
2018-06-17T02:05:25.301Z,14.58
2018-06-17T02:06:25.270Z,14.55
2018-06-17T02:07:25.270Z,14.57
2018-06-17T02:08:25.242Z,14.46
2018-06-17T02:09:25.222Z,14.33
2018-06-17T02:10:25.223Z,14.36
2018-06-17T02:11:25.188Z,14.37
2018-06-17T02:12:25.173Z,14.28
2018-06-17T02:13:25.152Z,14.22
2018-06-17T02:14:25.145Z,14.22
2018-06-17T02:15:25.118Z,14.27
2018-06-17T02:16:25.116Z,14.12
2018-06-17T02:17:25.092Z,14.12
2018-06-17T02:18:25.073Z,14.17
2018-06-17T02:19:25.058Z,14.12
2018-06-17T02:20:25.038Z,14.06
2018-06-17T02:21:25.047Z,14.14
2018-06-17T02:22:25.008Z,14.14
2018-06-17T02:23:24.993Z,14.07
2018-06-17T02:24:24.979Z,14.21
2018-06-17T02:25:24.955Z,14.06
2018-06-17T02:26:24.946Z,14.03
2018-06-17T02:27:24.925Z,14.04
2018-06-17T02:28:24.906Z,14.06
2018-06-17T02:29:24.890Z,14.07
2018-06-17T02:30:24.872Z,14.10
2018-06-17T02:31:24.886Z,14.17
2018-06-17T02:32:24.838Z,14.17
2018-06-17T02:33:24.817Z,14.14
2018-06-17T02:34:24.805Z,14.14
2018-06-17T02:35:24.792Z,14.03
2018-06-17T02:36:24.770Z,14.09
2018-06-17T02:37:24.775Z,14.03
2018-06-17T02:38:24.739Z,14.07
2018-06-17T02:39:24.720Z,14.07
2018-06-17T02:40:24.706Z,14.02
2018-06-17T02:41:24.686Z,13.99
2018-06-17T02:42:24.684Z,13.97
2018-06-17T02:43:24.652Z,14.06
2018-06-17T02:44:24.636Z,14.02
2018-06-17T02:45:24.622Z,14.03
2018-06-17T02:46:24.607Z,13.92
2018-06-17T02:47:24.585Z,13.96
2018-06-17T02:48:24.582Z,14.04
2018-06-17T02:49:24.552Z,14.03
2018-06-17T02:50:24.536Z,14.07
2018-06-17T02:51:24.515Z,14.07
2018-06-17T02:52:24.506Z,14.12
2018-06-17T02:53:24.497Z,14.07
2018-06-17T02:54:24.474Z,14.07
2018-06-17T02:55:24.454Z,14.04
2018-06-17T02:56:24.434Z,13.96
2018-06-17T02:57:24.420Z,13.88
2018-06-17T02:58:24.415Z,13.95
2018-06-17T02:59:24.392Z,13.97
2018-06-17T03:00:24.371Z,13.88
2018-06-17T03:01:24.351Z,13.82
2018-06-17T03:02:24.333Z,13.87
2018-06-17T03:03:24.318Z,13.81
2018-06-17T03:04:24.312Z,13.79
2018-06-17T03:05:24.287Z,13.82
2018-06-17T03:06:24.277Z,13.81
2018-06-17T03:07:24.247Z,13.84
2018-06-17T03:08:24.231Z,13.81
2018-06-17T03:09:24.224Z,13.73
2018-06-17T03:10:24.197Z,13.77
2018-06-17T03:11:24.182Z,13.82
2018-06-17T03:12:24.185Z,13.89
2018-06-17T03:13:24.158Z,13.87
2018-06-17T03:14:24.166Z,13.91
2018-06-17T03:15:24.112Z,13.95
2018-06-17T03:16:24.098Z,13.87
2018-06-17T03:17:24.081Z,13.88
2018-06-17T03:18:24.062Z,13.91
2018-06-17T03:19:24.051Z,13.89
2018-06-17T03:20:24.036Z,13.89
2018-06-17T03:21:24.009Z,13.87
2018-06-17T03:22:23.994Z,13.92
2018-06-17T03:23:23.978Z,13.87
2018-06-17T03:24:23.961Z,13.87
2018-06-17T03:25:23.954Z,13.85
2018-06-17T03:26:23.925Z,13.96
2018-06-17T03:27:23.909Z,13.91
2018-06-17T03:28:23.893Z,13.91
2018-06-17T03:29:23.873Z,13.99
2018-06-17T03:30:23.879Z,13.92
2018-06-17T03:31:23.839Z,13.91
2018-06-17T03:32:23.826Z,13.92
2018-06-17T03:33:23.807Z,14.00
2018-06-17T03:34:23.798Z,14.03
2018-06-17T03:35:23.772Z,13.97
2018-06-17T03:36:23.778Z,13.88
2018-06-17T03:37:23.740Z,13.96
2018-06-17T03:38:23.729Z,13.96
2018-06-17T03:39:23.705Z,13.95
2018-06-17T03:40:23.692Z,13.96
2018-06-17T03:41:23.686Z,13.85
2018-06-17T03:42:23.656Z,13.95
2018-06-17T03:43:23.641Z,13.99
2018-06-17T03:44:23.620Z,14.10
2018-06-17T03:45:23.608Z,14.07
2018-06-17T03:46:23.588Z,14.20
2018-06-17T03:48:23.560Z,14.14
2018-06-17T03:49:23.536Z,14.14
2018-06-17T03:50:23.520Z,14.20
2018-06-17T03:51:23.505Z,14.28
2018-06-17T03:52:23.496Z,14.29
2018-06-17T03:53:23.469Z,14.18
2018-06-17T03:54:23.454Z,14.29
2018-06-17T03:55:23.436Z,14.33
2018-06-17T03:56:23.419Z,14.29
2018-06-17T03:57:23.421Z,14.33
2018-06-17T03:58:23.389Z,14.37
2018-06-17T03:59:23.371Z,14.42
2018-06-17T04:00:23.352Z,14.46
2018-06-17T04:01:23.343Z,14.57
2018-06-17T04:02:23.336Z,14.54
2018-06-17T04:03:23.300Z,14.50
2018-06-17T04:04:23.286Z,14.47
2018-06-17T04:05:23.268Z,14.62
2018-06-17T04:06:23.257Z,14.60
2018-06-17T04:07:23.234Z,14.69
2018-06-17T04:08:23.240Z,14.68
2018-06-17T04:09:23.204Z,14.62
2018-06-17T04:10:23.285Z,14.64
2018-06-17T04:11:23.168Z,14.58
2018-06-17T04:12:23.151Z,14.68
2018-06-17T04:13:23.134Z,14.69
2018-06-17T04:14:23.131Z,14.77
2018-06-17T04:15:23.105Z,14.77
2018-06-17T04:16:23.092Z,14.77
2018-06-17T04:17:23.071Z,14.77
2018-06-17T04:18:23.056Z,14.86
2018-06-17T04:19:23.044Z,14.94
2018-06-17T04:20:23.023Z,15.02
2018-06-17T04:21:23.002Z,15.03
2018-06-17T04:22:22.986Z,14.98
2018-06-17T04:23:22.967Z,14.95
2018-06-17T04:24:22.963Z,14.99
2018-06-17T04:25:22.943Z,15.03
2018-06-17T04:26:22.920Z,15.14
2018-06-17T04:27:22.904Z,15.14
2018-06-17T04:28:22.886Z,15.28
2018-06-17T04:29:22.885Z,15.27
2018-06-17T04:30:22.856Z,15.25
2018-06-17T04:31:22.839Z,15.41
2018-06-17T04:32:22.821Z,15.31
2018-06-17T04:33:22.807Z,15.20
2018-06-17T04:34:22.793Z,15.25
2018-06-17T04:35:22.788Z,15.25
2018-06-17T04:36:22.759Z,15.32
2018-06-17T04:37:22.744Z,15.34
2018-06-17T04:38:22.725Z,15.36
2018-06-17T04:39:22.713Z,15.36
2018-06-17T04:40:22.708Z,15.44
2018-06-17T04:41:22.674Z,15.47
2018-06-17T04:42:22.661Z,15.51
2018-06-17T04:43:22.649Z,15.47
2018-06-17T04:44:22.631Z,15.50
2018-06-17T04:45:22.623Z,15.54
2018-06-17T04:46:22.600Z,15.54
2018-06-17T04:47:22.629Z,15.54
2018-06-17T04:48:22.574Z,15.59
2018-06-17T04:49:22.550Z,15.60
2018-06-17T04:50:22.543Z,15.50
2018-06-17T04:51:22.518Z,15.60
2018-06-17T04:52:22.509Z,15.62
2018-06-17T04:53:22.484Z,15.56
2018-06-17T04:54:22.466Z,15.74
2018-06-17T04:55:22.471Z,15.78
2018-06-17T04:56:22.436Z,15.84
2018-06-17T04:57:22.427Z,15.86
2018-06-17T04:58:22.407Z,15.89
2018-06-17T04:59:22.390Z,16.04
2018-06-17T05:00:22.377Z,16.01
2018-06-17T05:01:22.369Z,15.97
2018-06-17T05:02:22.342Z,16.04
2018-06-17T05:03:22.325Z,16.11
2018-06-17T05:04:22.311Z,16.08
2018-06-17T05:05:22.294Z,16.05
2018-06-17T05:06:22.291Z,16.08
2018-06-17T05:07:22.265Z,16.02
2018-06-17T05:08:22.249Z,16.07
2018-06-17T05:09:22.230Z,16.04
2018-06-17T05:10:22.238Z,16.05
2018-06-17T05:11:22.228Z,16.09
2018-06-17T05:12:22.184Z,15.97
2018-06-17T05:13:22.170Z,16.09
2018-06-17T05:14:22.155Z,16.30
2018-06-17T05:15:22.138Z,16.39
2018-06-17T05:16:22.126Z,16.49
2018-06-17T05:17:22.121Z,16.45
2018-06-17T05:18:22.094Z,16.48
2018-06-17T05:19:22.078Z,16.49
2018-06-17T05:20:22.060Z,16.50
2018-06-17T05:21:22.043Z,16.58
2018-06-17T05:22:22.037Z,16.52
2018-06-17T05:23:22.012Z,16.56
2018-06-17T05:24:21.998Z,16.53
2018-06-17T05:25:21.979Z,16.66
2018-06-17T05:26:21.968Z,16.60
2018-06-17T05:27:21.971Z,16.43
2018-06-17T05:28:21.936Z,16.46
2018-06-17T05:29:21.922Z,16.58
2018-06-17T05:30:21.903Z,16.61
2018-06-17T05:31:21.897Z,16.66
2018-06-17T05:32:21.881Z,16.81
2018-06-17T05:33:21.892Z,16.88
2018-06-17T05:34:21.841Z,16.68
2018-06-17T05:35:21.828Z,16.68
2018-06-17T05:36:21.815Z,16.85
2018-06-17T05:37:21.797Z,16.91
2018-06-17T05:38:21.794Z,17.03
2018-06-17T05:39:21.770Z,17.15
2018-06-17T05:40:21.757Z,17.33
2018-06-17T05:41:21.737Z,17.38
2018-06-17T05:42:21.722Z,17.28
2018-06-17T05:43:21.719Z,17.08
2018-06-17T05:44:21.693Z,16.94
2018-06-17T05:45:21.679Z,17.00
2018-06-17T05:46:21.664Z,17.04
2018-06-17T05:47:21.652Z,17.01
2018-06-17T05:48:21.648Z,17.03
2018-06-17T05:49:21.623Z,17.14
2018-06-17T05:50:21.610Z,17.16
2018-06-17T05:51:21.594Z,17.36
2018-06-17T05:52:21.570Z,17.46
2018-06-17T05:53:21.563Z,17.44
2018-06-17T05:54:21.561Z,17.64
2018-06-17T05:55:21.532Z,17.89
2018-06-17T05:56:21.514Z,18.14
2018-06-17T05:57:21.499Z,18.11
2018-06-17T05:58:21.502Z,18.12
2018-06-17T05:59:21.481Z,18.05
2018-06-17T06:00:21.458Z,18.47
2018-06-17T06:01:21.436Z,18.37
2018-06-17T06:02:21.427Z,18.87
2018-06-17T06:03:21.412Z,19.25
2018-06-17T06:04:21.462Z,19.65
2018-06-17T06:05:21.379Z,19.96
2018-06-17T06:06:21.368Z,19.91
2018-06-17T06:07:21.351Z,19.91
2018-06-17T06:08:21.336Z,19.50
2018-06-17T06:09:21.325Z,19.26
2018-06-17T06:10:21.335Z,18.99
2018-06-17T06:11:21.298Z,18.91
2018-06-17T06:12:21.285Z,18.91
2018-06-17T06:13:21.268Z,18.85
2018-06-17T06:14:21.253Z,18.81
2018-06-17T06:15:21.247Z,18.73
2018-06-17T06:16:21.225Z,18.72
2018-06-17T06:17:21.214Z,18.62
2018-06-17T06:18:21.197Z,18.51
2018-06-17T06:19:21.182Z,18.63
2018-06-17T06:20:21.184Z,18.52
2018-06-17T06:21:21.159Z,18.47
2018-06-17T06:22:21.141Z,18.48
2018-06-17T06:23:21.128Z,18.45
2018-06-17T06:24:21.115Z,18.54
2018-06-17T06:25:21.098Z,18.65
2018-06-17T06:26:21.100Z,18.81
2018-06-17T06:27:21.074Z,18.84
2018-06-17T06:28:21.066Z,18.72
2018-06-17T06:29:21.045Z,18.72
2018-06-17T06:30:21.029Z,18.91
2018-06-17T06:31:21.938Z,19.08
2018-06-17T06:32:21.003Z,19.37
2018-06-17T06:33:20.988Z,19.23
2018-06-17T06:34:20.974Z,19.25
2018-06-17T06:35:20.960Z,19.31
2018-06-17T06:36:20.954Z,19.10
2018-06-17T06:37:20.979Z,19.33
2018-06-17T06:38:20.919Z,19.66
2018-06-17T06:39:20.909Z,19.80
2018-06-17T06:40:20.894Z,19.54
2018-06-17T06:41:20.893Z,19.14
2018-06-17T06:42:20.865Z,19.18
2018-06-17T06:43:20.857Z,18.70
2018-06-17T06:44:20.837Z,18.58
2018-06-17T06:45:20.865Z,18.54
2018-06-17T06:46:20.818Z,18.47
2018-06-17T06:47:20.811Z,18.50
2018-06-17T06:48:20.789Z,18.57
2018-06-17T06:49:20.768Z,18.55
2018-06-17T06:50:20.786Z,18.58
2018-06-17T06:51:20.744Z,18.51
2018-06-17T06:52:20.747Z,18.69
2018-06-17T06:53:20.715Z,18.51
2018-06-17T06:54:20.702Z,18.30
2018-06-17T06:55:20.689Z,18.42
2018-06-17T06:56:20.680Z,18.51
2018-06-17T06:57:20.680Z,18.50
2018-06-17T06:58:20.651Z,18.36
2018-06-17T06:59:20.634Z,18.36
2018-06-17T07:00:20.621Z,18.41
2018-06-17T07:01:20.609Z,18.35
2018-06-17T07:02:20.599Z,18.35
2018-06-17T07:03:20.589Z,18.39
2018-06-17T07:04:20.568Z,18.41
2018-06-17T07:05:20.553Z,18.41
2018-06-17T07:06:20.543Z,18.42
2018-06-17T07:07:20.535Z,18.29
2018-06-17T07:08:20.530Z,18.14
2018-06-17T07:09:20.497Z,18.17
2018-06-17T07:10:20.486Z,18.03
2018-06-17T07:11:20.478Z,17.86
2018-06-17T07:12:20.456Z,18.00
2018-06-17T07:13:20.486Z,18.03
2018-06-17T07:14:20.445Z,17.96
2018-06-17T07:15:20.420Z,18.32
2018-06-17T07:16:20.403Z,18.37
2018-06-17T07:17:20.389Z,18.42
2018-06-17T07:18:20.375Z,18.76
2018-06-17T07:19:20.374Z,19.31
2018-06-17T07:20:20.347Z,19.18
2018-06-17T07:21:20.335Z,19.41
2018-06-17T07:22:20.320Z,19.99
2018-06-17T07:23:20.307Z,20.64
2018-06-17T07:24:20.309Z,21.27
2018-06-17T07:25:20.283Z,21.35
2018-06-17T07:26:20.281Z,21.38
2018-06-17T07:27:20.255Z,21.22
2018-06-17T07:28:20.236Z,21.01
2018-06-17T07:29:20.222Z,20.48
2018-06-17T07:30:20.229Z,20.20
2018-06-17T07:31:20.206Z,19.94
2018-06-17T07:32:20.186Z,19.99
2018-06-17T07:33:20.169Z,19.94
2018-06-17T07:34:20.158Z,19.63
2018-06-17T07:35:20.156Z,19.55
2018-06-17T07:36:20.136Z,19.77
2018-06-17T07:37:20.119Z,19.98
2018-06-17T07:38:20.102Z,19.96
2018-06-17T07:39:20.092Z,20.17
2018-06-17T07:40:20.090Z,20.24
2018-06-17T07:41:20.069Z,20.10
2018-06-17T07:42:20.052Z,20.26
2018-06-17T07:43:20.040Z,20.05
2018-06-17T07:44:20.033Z,19.88
2018-06-17T07:45:20.050Z,19.92
2018-06-17T07:46:20.015Z,19.92
2018-06-17T07:47:19.986Z,19.71
2018-06-17T07:48:19.974Z,19.48
2018-06-17T07:49:19.991Z,19.48
2018-06-17T07:50:19.949Z,19.40
2018-06-17T07:51:19.945Z,19.59
2018-06-17T07:52:19.925Z,19.48
2018-06-17T07:53:19.908Z,19.41
2018-06-17T07:54:19.897Z,19.46
2018-06-17T07:55:19.884Z,19.41
2018-06-17T07:56:19.883Z,19.22
2018-06-17T07:57:19.860Z,19.37
2018-06-17T07:58:19.849Z,19.47
2018-06-17T07:59:19.831Z,19.54
2018-06-17T08:00:19.820Z,19.31
2018-06-17T08:01:19.818Z,19.44
2018-06-17T08:02:19.791Z,19.56
2018-06-17T08:03:19.776Z,19.87
2018-06-17T08:04:19.763Z,20.02
2018-06-17T08:05:19.753Z,19.77
2018-06-17T08:06:19.740Z,19.77
2018-06-17T08:07:19.740Z,19.83
2018-06-17T08:08:19.715Z,19.69
2018-06-17T08:09:19.700Z,19.73
2018-06-17T08:10:19.689Z,19.59
2018-06-17T08:11:19.674Z,19.66
2018-06-17T08:12:19.676Z,19.62
2018-06-17T08:13:19.649Z,19.86
2018-06-17T08:14:19.634Z,20.03
2018-06-17T08:15:19.625Z,20.35
2018-06-17T08:16:19.611Z,20.38
2018-06-17T08:17:19.598Z,20.16
2018-06-17T08:18:19.592Z,19.99
2018-06-17T08:19:19.578Z,19.83
2018-06-17T08:20:19.560Z,20.11
2018-06-17T08:21:19.545Z,20.29
2018-06-17T08:22:19.532Z,20.47
2018-06-17T08:23:19.528Z,20.36
2018-06-17T08:24:19.509Z,20.57
2018-06-17T08:25:19.493Z,20.39
2018-06-17T08:26:19.482Z,20.32
2018-06-17T08:27:19.466Z,20.62
2018-06-17T08:28:19.480Z,20.54
2018-06-17T08:29:19.446Z,20.69
2018-06-17T08:30:19.431Z,20.73
2018-06-17T08:31:19.429Z,20.62
2018-06-17T08:32:19.405Z,20.70
2018-06-17T08:33:19.396Z,20.69
2018-06-17T08:34:19.400Z,20.52
2018-06-17T08:35:19.367Z,20.70
2018-06-17T08:36:19.378Z,20.31
2018-06-17T08:37:19.343Z,20.31
2018-06-17T08:38:19.331Z,20.20
2018-06-17T08:39:19.317Z,20.10
2018-06-17T08:40:19.321Z,20.16
2018-06-17T08:41:19.300Z,20.24
2018-06-17T08:42:19.285Z,20.11
2018-06-17T08:43:19.272Z,20.11
2018-06-17T08:44:19.262Z,20.14
2018-06-17T08:45:19.250Z,20.18
2018-06-17T08:46:19.234Z,20.31
2018-06-17T08:47:19.223Z,20.62
2018-06-17T08:48:19.205Z,20.47
2018-06-17T08:49:19.201Z,20.42
2018-06-17T08:50:19.194Z,20.42
2018-06-17T08:51:19.172Z,20.47
2018-06-17T08:52:19.155Z,20.58
2018-06-17T08:53:19.145Z,20.39
2018-06-17T08:54:19.191Z,20.51
2018-06-17T08:55:19.132Z,20.72
2018-06-17T08:56:19.112Z,20.59
2018-06-17T08:57:19.094Z,20.14
2018-06-17T08:58:19.082Z,20.11
2018-06-17T08:59:19.074Z,20.16
2018-06-17T09:00:19.130Z,20.13
2018-06-17T09:01:19.053Z,19.96
2018-06-17T09:02:19.037Z,19.95
2018-06-17T09:03:19.025Z,20.11
2018-06-17T09:04:19.008Z,20.21
2018-06-17T09:05:18.997Z,20.24
2018-06-17T09:06:19.012Z,20.47
2018-06-17T09:07:18.970Z,20.59
2018-06-17T09:08:18.959Z,20.73
2018-06-17T09:09:18.945Z,20.79
2018-06-17T09:10:18.934Z,20.99
2018-06-17T09:11:18.935Z,20.88
2018-06-17T09:12:18.973Z,20.94
2018-06-17T09:13:18.898Z,20.97
2018-06-17T09:14:18.884Z,20.97
2018-06-17T09:15:18.871Z,21.28
2018-06-17T09:16:18.872Z,21.52
2018-06-17T09:17:18.853Z,21.53
2018-06-17T09:18:18.843Z,21.56
2018-06-17T09:19:18.843Z,21.61
2018-06-17T09:20:18.822Z,21.80
2018-06-17T09:21:18.809Z,21.94
2018-06-17T09:22:18.788Z,22.05
2018-06-17T09:23:18.776Z,21.96
2018-06-17T09:24:18.760Z,21.71
2018-06-17T09:25:18.816Z,21.68
2018-06-17T09:26:18.750Z,21.74
2018-06-17T09:27:18.730Z,21.94
2018-06-17T09:28:18.718Z,21.98
2018-06-17T09:29:18.706Z,21.90
2018-06-17T09:30:18.694Z,21.96
2018-06-17T09:31:18.694Z,21.62
2018-06-17T09:32:18.703Z,21.58
2018-06-17T09:33:18.666Z,21.44
2018-06-17T09:34:18.649Z,21.64
2018-06-17T09:35:18.633Z,21.67
2018-06-17T09:36:18.641Z,21.69
2018-06-17T09:37:18.612Z,21.71
2018-06-17T09:38:18.601Z,21.65
2018-06-17T09:39:18.588Z,21.16
2018-06-17T09:40:18.579Z,21.19
2018-06-17T09:41:18.585Z,21.22
2018-06-17T09:42:18.565Z,21.24
2018-06-17T09:43:18.544Z,21.19
2018-06-17T09:44:18.562Z,21.50
2018-06-17T09:45:18.519Z,21.72
2018-06-17T09:46:18.507Z,21.96
2018-06-17T09:47:18.525Z,21.92
2018-06-17T09:48:18.485Z,21.99
2018-06-17T09:49:18.477Z,22.30
2018-06-17T09:50:18.464Z,22.31
2018-06-17T09:51:18.462Z,22.33
2018-06-17T09:52:18.449Z,22.00
2018-06-17T09:53:18.427Z,21.86
2018-06-17T09:54:18.421Z,21.92
2018-06-17T09:55:18.403Z,21.77
2018-06-17T09:56:18.389Z,21.38
2018-06-17T09:57:18.390Z,21.64
2018-06-17T09:58:18.371Z,21.59
2018-06-17T09:59:18.361Z,21.84
2018-06-17T10:00:18.348Z,21.77
2018-06-17T10:01:18.355Z,22.00
2018-06-17T10:02:18.341Z,22.14
2018-06-17T10:03:18.312Z,22.27
2018-06-17T10:04:18.303Z,22.00
2018-06-17T10:05:18.292Z,21.75
2018-06-17T10:06:18.281Z,22.06
2018-06-17T10:07:18.267Z,22.21
2018-06-17T10:08:18.278Z,22.39
2018-06-17T10:09:18.247Z,22.57
2018-06-17T10:10:18.234Z,22.75
2018-06-17T10:11:18.227Z,23.00
2018-06-17T10:12:18.214Z,23.00
2018-06-17T10:13:18.200Z,22.83
2018-06-17T10:14:18.210Z,23.00
2018-06-17T10:15:18.183Z,22.95
2018-06-17T10:16:18.168Z,22.73
2018-06-17T10:17:18.158Z,22.97
2018-06-17T10:18:18.146Z,22.64
2018-06-17T10:19:18.140Z,22.54
2018-06-17T10:20:18.125Z,21.83
2018-06-17T10:21:18.116Z,21.71
2018-06-17T10:22:18.101Z,21.72
2018-06-17T10:23:18.086Z,21.68
2018-06-17T10:24:18.089Z,21.88
2018-06-17T10:25:18.069Z,21.82
2018-06-17T10:26:18.061Z,21.62
2018-06-17T10:27:18.046Z,21.50
2018-06-17T10:28:18.034Z,21.67
2018-06-17T10:29:18.052Z,21.68
2018-06-17T10:30:18.022Z,21.90
2018-06-17T10:31:17.999Z,22.05
2018-06-17T10:32:17.991Z,21.84
2018-06-17T10:33:17.978Z,22.03
2018-06-17T10:34:17.967Z,22.07
2018-06-17T10:35:17.975Z,22.27
2018-06-17T10:36:17.944Z,22.25
2018-06-17T10:37:17.931Z,22.51
2018-06-17T10:38:17.927Z,22.54
2018-06-17T10:39:17.910Z,22.79
2018-06-17T10:40:17.902Z,23.05
2018-06-17T10:41:17.897Z,23.12
2018-06-17T10:42:17.877Z,22.67
2018-06-17T10:43:17.867Z,22.37
2018-06-17T10:44:17.885Z,22.30
2018-06-17T10:45:17.838Z,21.96
2018-06-17T10:46:17.843Z,21.98
2018-06-17T10:47:17.820Z,22.28
2018-06-17T10:48:17.810Z,22.55
2018-06-17T10:49:17.799Z,22.64
2018-06-17T10:50:17.796Z,22.91
2018-06-17T10:51:17.797Z,23.15
2018-06-17T10:52:17.766Z,22.88
2018-06-17T10:53:17.754Z,22.61
2018-06-17T10:54:17.749Z,22.77
2018-06-17T10:55:17.734Z,22.61
2018-06-17T10:56:17.806Z,22.67
2018-06-17T10:57:17.725Z,22.65
2018-06-17T10:58:17.701Z,22.46
2018-06-17T10:59:17.689Z,22.40
2018-06-17T11:00:17.678Z,22.40
2018-06-17T11:01:17.718Z,22.70
2018-06-17T11:02:17.683Z,22.88
2018-06-17T11:03:17.645Z,22.95
2018-06-17T11:04:17.637Z,23.05
2018-06-17T11:05:17.697Z,22.54
2018-06-17T11:06:17.618Z,22.73
2018-06-17T11:07:17.603Z,23.05
2018-06-17T11:08:17.600Z,23.09
2018-06-17T11:09:17.580Z,23.32
2018-06-17T11:10:17.570Z,23.35
2018-06-17T11:11:17.557Z,23.57
2018-06-17T11:12:17.547Z,23.53
2018-06-17T11:13:17.625Z,23.12
2018-06-17T11:14:17.530Z,22.61
2018-06-17T11:15:17.520Z,22.40
2018-06-17T11:16:17.506Z,22.27
2018-06-17T11:17:17.498Z,22.09
2018-06-17T11:18:17.511Z,21.91
2018-06-17T11:19:17.469Z,21.94
2018-06-17T11:20:17.472Z,21.69
2018-06-17T11:21:17.455Z,21.69
2018-06-17T11:22:17.442Z,21.84
2018-06-17T11:23:17.425Z,21.50
2018-06-17T11:24:17.439Z,21.29
2018-06-17T11:25:17.407Z,21.59
2018-06-17T11:26:17.392Z,21.59
2018-06-17T11:27:17.400Z,21.83
2018-06-17T11:28:17.371Z,22.12
2018-06-17T11:29:17.373Z,22.00
2018-06-17T11:30:17.346Z,22.31
2018-06-17T11:31:17.364Z,22.43
2018-06-17T11:32:17.329Z,22.54
2018-06-17T11:33:17.314Z,22.70
2018-06-17T11:34:17.303Z,22.90
2018-06-17T11:35:17.311Z,23.00
2018-06-17T11:36:17.278Z,23.04
2018-06-17T11:37:17.268Z,23.33
2018-06-17T11:38:17.258Z,23.38
2018-06-17T11:39:17.246Z,23.73
2018-06-17T11:40:17.235Z,24.27
2018-06-17T11:41:17.235Z,24.18
2018-06-17T11:42:17.214Z,23.68
2018-06-17T11:43:17.204Z,23.42
2018-06-17T11:44:17.192Z,23.28
2018-06-17T11:45:17.181Z,23.07
2018-06-17T11:46:17.182Z,23.01
2018-06-17T11:47:17.161Z,23.00
2018-06-17T11:48:17.149Z,23.04
2018-06-17T11:49:17.144Z,22.94
2018-06-17T11:50:17.129Z,22.79
2018-06-17T11:51:17.132Z,22.90
2018-06-17T11:52:17.106Z,22.62
2018-06-17T11:53:17.107Z,22.85
2018-06-17T11:54:17.084Z,22.98
2018-06-17T11:55:17.086Z,23.04
2018-06-17T11:56:17.074Z,22.79
2018-06-17T11:57:17.048Z,22.31
2018-06-17T11:58:17.042Z,22.27
2018-06-17T11:59:17.031Z,22.45
2018-06-17T12:00:17.019Z,22.42
2018-06-17T12:01:17.009Z,22.43
2018-06-17T12:02:17.029Z,22.55
2018-06-17T12:03:16.984Z,22.40
2018-06-17T12:04:16.975Z,22.57
2018-06-17T12:05:16.964Z,22.51
2018-06-17T12:06:16.953Z,22.28
2018-06-17T12:07:16.962Z,22.09
2018-06-17T12:08:16.931Z,22.31
2018-06-17T12:09:16.920Z,22.12
2018-06-17T12:10:16.910Z,22.10
2018-06-17T12:11:16.896Z,21.68
2018-06-17T12:12:16.887Z,21.72
2018-06-17T12:13:16.890Z,21.68
2018-06-17T12:14:16.862Z,22.03
2018-06-17T12:15:16.853Z,21.80
2018-06-17T12:16:16.849Z,21.67
2018-06-17T12:17:16.835Z,21.74
2018-06-17T12:18:16.829Z,21.79
2018-06-17T12:19:16.808Z,21.72
2018-06-17T12:20:16.802Z,21.62
2018-06-17T12:21:16.786Z,21.64
2018-06-17T12:22:16.772Z,21.67
2018-06-17T12:23:16.781Z,21.82
2018-06-17T12:24:16.748Z,21.69
2018-06-17T12:25:16.739Z,21.52
2018-06-17T12:26:16.733Z,21.43
2018-06-17T12:27:16.715Z,21.37
2018-06-17T12:28:16.720Z,21.35
2018-06-17T12:29:16.694Z,21.38
2018-06-17T12:30:16.680Z,21.22
2018-06-17T12:31:16.674Z,21.17
2018-06-17T12:32:16.658Z,21.21
2018-06-17T12:33:16.647Z,21.16
2018-06-17T12:34:16.651Z,21.27
2018-06-17T12:35:16.636Z,21.31
2018-06-17T12:36:16.608Z,21.09
2018-06-17T12:37:16.595Z,21.07
2018-06-17T12:38:16.587Z,21.17
2018-06-17T12:39:16.571Z,21.24
2018-06-17T12:40:16.570Z,21.43
2018-06-17T12:41:16.547Z,21.32
2018-06-17T12:42:16.554Z,21.29
2018-06-17T12:43:16.524Z,21.24
2018-06-17T12:44:16.518Z,21.38
2018-06-17T12:45:16.509Z,21.50
2018-06-17T12:46:16.484Z,21.67
2018-06-17T12:47:16.486Z,21.53
2018-06-17T12:48:16.461Z,21.75
2018-06-17T12:49:16.451Z,21.67
2018-06-17T12:50:16.453Z,21.72
2018-06-17T12:51:16.425Z,21.58
2018-06-17T12:52:16.418Z,21.54
2018-06-17T12:53:16.401Z,21.58